Time;durP1;ratioP1;P1;durP2;ratioP2;P2;SDS_P1;SDS_P2;PMS_P1;PMS_P2;Temp;Humidity;BMP_temperature;BMP_pressure;BME280_temperature;BME280_humidity;BME280_pressure;Samples;Min_cycle;Max_cycle;Signal;HPM_P1;HPM_P2
2023/06/29 00:01:32;;;;;;;9.47;5.07;;;17.60;1.00;;;;;;6183466;23;20415;-94
2023/06/29 00:10:05;;;;;;;7.23;6.63;;;17.30;99.90;;;;;;6181728;23;20393;-94
2023/06/29 00:13:15;;;;;;;8.47;5.20;;;17.40;1.00;;;;;;6178939;23;20471;-94
2023/06/29 00:53:59;;;;;;;8.10;7.07;;;16.80;99.90;;;;;;6175209;23;20428;-95
2023/06/29 00:56:47;;;;;;;7.03;6.27;;;16.70;99.90;;;;;;6182857;23;20396;-95
2023/06/29 01:02:45;;;;;;;;;;;;;;;;;;;;;
2023/06/29 01:09:04;;;;;;;7.63;6.60;;;16.70;99.90;;;;;;6172736;23;20424;-94
2023/06/29 01:12:11;;;;;;;6.43;5.80;;;16.60;99.90;;;;;;6181501;23;20411;-94
2023/06/29 01:15:23;;;;;;;7.13;6.10;;;16.50;1.00;;;;;;6180015;23;20436;-93
2023/06/29 01:17:54;;;;;;;6.10;5.50;;;16.50;1.00;;;;;;6173743;23;20523;-91
2023/06/29 01:20:21;;;;;;;7.53;6.57;;;;;;;;;;6168381;23;20372;-91
2023/06/29 01:22:58;;;;;;;7.37;5.70;;;16.40;1.00;;;;;;6178786;23;20423;-92
2023/06/29 01:25:28;;;;;;;7.10;6.23;;;16.40;1.00;;;;;;6162522;23;20964;-91
2023/06/29 01:27:55;;;;;;;10.73;6.13;;;;;;;;;;6161708;23;20431;-92
2023/06/29 01:30:23;;;;;;;7.80;6.00;;;;;;;;;;6165319;23;20869;-92
2023/06/29 01:32:50;;;;;;;7.40;5.80;;;;;;;;;;6175747;23;20436;-92
2023/06/29 01:35:18;;;;;;;5.27;4.77;;;;;;;;;;6176559;23;20460;-92
2023/06/29 01:37:51;;;;;;;6.67;6.00;;;16.70;37.00;;;;;;6169808;23;20446;-91
2023/06/29 01:40:22;;;;;;;6.70;5.70;;;16.60;1.00;;;;;;6165453;23;20460;-92
2023/06/29 01:42:54;;;;;;;6.80;6.07;;;16.60;99.90;;;;;;6185410;23;20384;-94
2023/06/29 01:45:22;;;;;;;5.97;5.27;;;16.50;1.00;;;;;;6185972;23;20426;-93
2023/06/29 01:47:50;;;;;;;6.80;6.10;;;;;;;;;;6185885;23;20400;-93
2023/06/29 01:50:17;;;;;;;8.40;7.50;;;;;;;;;;6185737;23;20420;-93
2023/06/29 01:52:45;;;;;;;7.57;5.70;;;16.40;99.90;;;;;;6182060;23;20396;-91
2023/06/29 01:55:12;;;;;;;5.77;5.27;;;16.40;99.90;;;;;;6167337;23;20410;-92
2023/06/29 01:57:40;;;;;;;7.30;6.70;;;;;;;;;;6174773;23;20443;-93
2023/06/29 02:00:17;;;;;;;8.10;7.30;;;16.10;51.00;;;;;;6184839;23;20399;-92
2023/06/29 02:02:44;;;;;;;9.30;7.80;;;;;;;;;;6185107;23;20435;-92
2023/06/29 02:05:21;;;;;;;14.43;10.97;;;;;;;;;;6172256;23;20439;-91
2023/06/29 02:07:48;;;;;;;10.73;7.37;;;;;;;;;;6172815;23;20426;-90
2023/06/29 02:10:15;;;;;;;6.50;5.43;;;16.10;47.60;;;;;;6184257;23;20372;-91
2023/06/29 02:12:43;;;;;;;6.20;5.60;;;;;;;;;;6183120;23;20398;-90
2023/06/29 02:15:11;;;;;;;8.50;6.70;;;16.20;99.90;;;;;;6176753;23;20408;-90
2023/06/29 02:26:29;;;;;;;;;;;;;;;;;;;;;
2023/06/29 02:32:14;;;;;;;13.10;7.60;;;15.90;1.00;;;;;;6179251;23;20411;-95
2023/06/29 02:34:49;;;;;;;10.43;6.70;;;15.90;1.00;;;;;;6185063;23;20391;-95
2023/06/29 02:40:44;;;;;;;12.63;6.13;;;16.10;1.00;;;;;;6180774;23;20489;-94
2023/06/29 02:43:11;;;;;;;7.00;5.90;;;;;;;;;;6160839;23;20463;-90
2023/06/29 02:45:38;;;;;;;8.40;6.53;;;15.90;1.00;;;;;;6161706;23;20501;-91
2023/06/29 02:48:07;;;;;;;8.10;7.13;;;16.10;1.00;;;;;;6164813;23;20418;-90
2023/06/29 02:50:34;;;;;;;9.33;7.30;;;16.20;99.90;;;;;;6184432;23;20411;-89
2023/06/29 02:53:01;;;;;;;9.43;7.63;;;16.10;99.90;;;;;;6184558;23;20427;-90
2023/06/29 02:55:28;;;;;;;11.30;7.07;;;;;;;;;;6181175;23;20412;-90
2023/06/29 02:57:55;;;;;;;9.73;8.50;;;;;;;;;;6168885;23;20415;-91
2023/06/29 03:00:22;;;;;;;10.23;7.57;;;16.00;99.90;;;;;;6172494;23;20411;-91
2023/06/29 03:02:50;;;;;;;8.30;7.50;;;;;;;;;;6172255;23;20443;-91
2023/06/29 03:05:18;;;;;;;9.40;8.50;;;16.20;1.00;;;;;;6164882;23;20439;-91
2023/06/29 03:07:45;;;;;;;11.30;8.10;;;15.90;99.90;;;;;;6170225;23;20442;-91
2023/06/29 03:10:12;;;;;;;9.00;8.10;;;16.30;99.90;;;;;;6172034;23;20443;-90
2023/06/29 03:12:41;;;;;;;9.33;8.20;;;;;;;;;;6181664;23;20455;-91
2023/06/29 03:15:09;;;;;;;10.23;9.23;;;16.00;1.00;;;;;;6180225;23;20479;-91
2023/06/29 03:17:36;;;;;;;10.20;9.13;;;16.00;1.00;;;;;;6178734;23;20434;-91
2023/06/29 03:20:04;;;;;;;10.63;8.50;;;;;;;;;;6171578;23;20468;-91
2023/06/29 03:22:33;;;;;;;11.87;10.77;;;16.00;14.80;;;;;;6165447;23;20439;-91
2023/06/29 03:25:00;;;;;;;12.00;10.80;;;;;;;;;;6182107;23;20440;-90
2023/06/29 03:27:28;;;;;;;14.80;10.43;;;;;;;;;;6185034;23;20423;-89
2023/06/29 03:29:55;;;;;;;12.77;9.63;;;;;;;;;;6178472;23;20725;-91
2023/06/29 03:32:29;;;;;;;11.40;10.10;;;16.00;99.90;;;;;;6163832;23;20432;-92
2023/06/29 03:34:56;;;;;;;10.30;9.27;;;;;;;;;;6161934;23;20387;-91
2023/06/29 03:37:24;;;;;;;13.83;10.50;;;;;;;;;;6161659;23;20447;-91
2023/06/29 03:39:56;;;;;;;11.50;9.67;;;15.90;99.90;;;;;;6163379;23;20536;-91
2023/06/29 03:42:23;;;;;;;11.93;10.10;;;;;;;;;;6163372;23;20551;-92
2023/06/29 03:44:52;;;;;;;9.93;8.10;;;15.90;1.00;;;;;;6162602;23;20492;-91
2023/06/29 03:47:20;;;;;;;13.53;9.10;;;;;;;;;;6161833;23;20420;-91
2023/06/29 03:49:47;;;;;;;10.47;9.47;;;;;;;;;;6161242;23;20496;-91
2023/06/29 03:52:14;;;;;;;8.87;8.17;;;;;;;;;;6160008;23;20435;-91
2023/06/29 03:54:42;;;;;;;9.50;8.60;;;;;;;;;;6167300;23;20411;-91
2023/06/29 03:57:10;;;;;;;9.07;8.27;;;16.10;99.90;;;;;;6160752;23;20426;-92
2023/06/29 03:59:37;;;;;;;9.03;8.20;;;16.20;99.90;;;;;;6162105;23;20443;-91
2023/06/29 04:02:04;;;;;;;11.93;7.97;;;;;;;;;;6167212;23;20419;-91
2023/06/29 04:04:32;;;;;;;8.93;8.23;;;;;;;;;;6164563;23;20498;-92
2023/06/29 04:06:59;;;;;;;9.27;8.33;;;15.80;99.90;;;;;;6164170;23;20407;-91
2023/06/29 04:09:30;;;;;;;8.57;7.87;;;16.10;99.90;;;;;;6163552;23;20996;-92
2023/06/29 04:11:57;;;;;;;8.93;8.13;;;16.10;99.90;;;;;;6165409;23;20427;-91
2023/06/29 04:14:26;;;;;;;11.27;9.00;;;16.30;51.00;;;;;;6163025;23;20428;-92
2023/06/29 04:16:53;;;;;;;8.47;7.77;;;;;;;;;;6176016;23;20408;-92
2023/06/29 04:19:25;;;;;;;8.83;8.00;;;16.50;1.00;;;;;;6184308;23;20400;-90
2023/06/29 04:21:52;;;;;;;7.70;7.10;;;;;;;;;;6181951;23;20501;-92
2023/06/29 04:24:20;;;;;;;9.77;8.77;;;;;;;;;;6172705;23;20470;-93
2023/06/29 04:26:47;;;;;;;10.80;9.30;;;;;;;;;;6165659;23;20436;-91
2023/06/29 04:29:20;;;;;;;7.97;7.20;;;16.90;1.00;;;;;;6163733;23;20558;-91
2023/06/29 04:31:48;;;;;;;17.43;12.77;;;16.90;1.00;;;;;;6164277;23;20428;-92
2023/06/29 04:34:17;;;;;;;11.20;8.13;;;16.90;1.00;;;;;;6162574;23;20389;-91
2023/06/29 04:36:46;;;;;;;7.63;6.87;;;17.00;1.00;;;;;;6164739;23;20653;-91
2023/06/29 04:39:14;;;;;;;8.53;7.60;;;;;;;;;;6169300;23;20416;-91
2023/06/29 04:41:41;;;;;;;8.50;7.70;;;;;;;;;;6164503;23;20450;-91
2023/06/29 04:44:09;;;;;;;9.70;7.60;;;17.10;77.10;;;;;;6167349;23;20420;-91
2023/06/29 04:46:39;;;;;;;7.70;7.00;;;17.00;1.00;;;;;;6169561;23;20987;-91
2023/06/29 04:49:09;;;;;;;7.53;6.70;;;17.10;99.90;;;;;;6167807;23;20907;-91
2023/06/29 04:51:37;;;;;;;10.53;7.63;;;17.10;92.80;;;;;;6168477;23;20431;-91
2023/06/29 04:54:05;;;;;;;7.90;7.07;;;;;;;;;;6179249;23;20422;-91
2023/06/29 04:56:32;;;;;;;10.70;6.90;;;;;;;;;;6181998;23;20398;-91
2023/06/29 04:58:59;;;;;;;17.07;8.07;;;17.10;1.00;;;;;;6182305;23;20422;-91
2023/06/29 05:01:27;;;;;;;7.93;7.23;;;;;;;;;;6175464;23;20510;-91
2023/06/29 05:03:54;;;;;;;8.20;6.93;;;;;;;;;;6170521;23;20440;-91
2023/06/29 05:06:23;;;;;;;12.53;9.60;;;19.20;99.90;;;;;;6166404;23;20518;-92
2023/06/29 05:08:50;;;;;;;11.30;9.93;;;;;;;;;;6179324;23;20399;-90
2023/06/29 05:11:17;;;;;;;7.30;6.60;;;;;;;;;;6185408;23;20412;-90
2023/06/29 05:13:45;;;;;;;6.50;5.90;;;;;;;;;;6184632;23;20439;-91
2023/06/29 05:16:12;;;;;;;6.13;5.63;;;;;;;;;;6159391;23;20460;-88
2023/06/29 05:18:39;;;;;;;6.50;5.90;;;17.70;99.90;;;;;;6160703;23;20932;-89
2023/06/29 05:21:07;;;;;;;9.83;6.93;;;17.80;1.00;;;;;;6175371;23;20404;-88
2023/06/29 05:23:35;;;;;;;9.20;5.30;;;18.10;1.00;;;;;;6160774;23;20419;-88
2023/06/29 05:26:02;;;;;;;8.73;5.60;;;18.30;99.90;;;;;;6160149;23;20475;-88
2023/06/29 05:28:29;;;;;;;5.60;4.93;;;18.40;99.90;;;;;;6159873;23;20412;-89
2023/06/29 05:30:56;;;;;;;7.33;4.50;;;18.60;1.00;;;;;;6159854;23;20494;-89
2023/06/29 05:33:23;;;;;;;6.90;5.00;;;18.80;1.00;;;;;;6160541;23;20440;-88
2023/06/29 05:35:49;;;;;;;6.60;5.50;;;18.90;1.00;;;;;;6159690;23;20456;-89
2023/06/29 05:38:16;;;;;;;5.23;4.83;;;19.00;1.00;;;;;;6159627;23;20404;-88
2023/06/29 05:40:44;;;;;;;4.63;4.33;;;18.90;99.90;;;;;;6159502;23;20447;-89
2023/06/29 05:43:11;;;;;;;7.03;5.87;;;19.00;99.90;;;;;;6160126;23;20491;-89
2023/06/29 05:45:39;;;;;;;6.20;5.20;;;18.90;1.00;;;;;;6159535;23;20482;-89
2023/06/29 05:48:06;;;;;;;6.63;4.63;;;19.00;1.00;;;;;;6160897;23;20412;-89
2023/06/29 05:50:33;;;;;;;9.77;5.70;;;19.00;99.90;;;;;;6171545;23;20426;-88
2023/06/29 05:53:00;;;;;;;5.30;4.90;;;19.10;1.00;;;;;;6185324;23;20419;-88
2023/06/29 05:55:27;;;;;;;5.20;4.77;;;19.10;1.00;;;;;;6184736;23;20423;-87
2023/06/29 05:57:55;;;;;;;6.50;5.00;;;19.00;99.90;;;;;;6184970;23;20436;-88
2023/06/29 06:00:22;;;;;;;6.50;5.40;;;19.10;99.90;;;;;;6178372;23;20447;-89
2023/06/29 06:02:49;;;;;;;4.60;4.13;;;19.10;1.00;;;;;;6164439;23;20475;-88
2023/06/29 06:05:16;;;;;;;6.43;5.40;;;19.10;99.90;;;;;;6160565;23;20436;-88
2023/06/29 06:07:42;;;;;;;5.60;5.10;;;19.30;99.90;;;;;;6175190;23;20487;-88
2023/06/29 06:10:10;;;;;;;5.40;5.00;;;19.50;99.90;;;;;;6178739;23;20404;-89
2023/06/29 06:12:37;;;;;;;7.23;5.57;;;19.60;99.90;;;;;;6166109;23;20486;-88
2023/06/29 06:15:08;;;;;;;10.37;7.33;;;19.70;1.00;;;;;;6162465;23;20442;-88
2023/06/29 06:17:35;;;;;;;7.30;6.13;;;19.80;1.00;;;;;;6160329;23;20480;-89
2023/06/29 06:20:04;;;;;;;4.97;4.60;;;19.80;1.00;;;;;;6159565;23;20408;-88
2023/06/29 06:22:31;;;;;;;6.13;5.40;;;19.80;1.00;;;;;;6159637;23;20412;-88
2023/06/29 06:25:01;;;;;;;7.47;6.87;;;19.80;1.00;;;;;;6160607;23;20905;-88
2023/06/29 06:27:27;;;;;;;8.03;7.13;;;19.80;99.90;;;;;;6159994;23;20451;-88
2023/06/29 06:29:54;;;;;;;5.57;4.90;;;19.80;15.90;;;;;;6159469;23;20495;-89
2023/06/29 06:32:24;;;;;;;4.70;4.30;;;20.00;1.00;;;;;;6160157;23;20444;-88
2023/06/29 06:34:51;;;;;;;5.20;4.70;;;20.00;1.00;;;;;;6158944;23;20486;-88
2023/06/29 06:37:18;;;;;;;4.90;4.50;;;19.90;99.90;;;;;;6159360;23;20412;-88
2023/06/29 06:39:45;;;;;;;4.13;3.83;;;19.90;99.90;;;;;;6161851;23;20440;-88
2023/06/29 06:42:12;;;;;;;5.27;3.40;;;20.00;99.90;;;;;;6159369;23;20404;-88
2023/06/29 06:44:50;;;;;;;4.50;4.10;;;20.00;99.90;;;;;;6161945;23;20428;-87
2023/06/29 06:47:17;;;;;;;5.30;4.60;;;20.10;99.90;;;;;;6174825;23;20452;-88
2023/06/29 06:49:45;;;;;;;5.37;3.77;;;20.10;1.00;;;;;;6174453;23;20471;-88
2023/06/29 06:52:12;;;;;;;5.00;3.60;;;20.30;1.00;;;;;;6168067;23;20404;-89
2023/06/29 06:54:39;;;;;;;4.37;3.47;;;20.30;1.00;;;;;;6164452;23;20757;-89
2023/06/29 06:57:06;;;;;;;5.00;3.83;;;20.40;1.00;;;;;;6166183;23;20487;-88
2023/06/29 06:59:33;;;;;;;8.50;3.50;;;20.50;1.00;;;;;;6164405;23;20486;-88
2023/06/29 07:02:00;;;;;;;7.97;3.33;;;20.50;1.00;;;;;;6160913;23;20483;-89
2023/06/29 07:04:27;;;;;;;8.47;4.13;;;20.70;63.00;;;;;;6164331;23;20459;-89
2023/06/29 07:06:55;;;;;;;8.77;4.23;;;20.80;1.00;;;;;;6170314;23;20462;-87
2023/06/29 07:09:21;;;;;;;3.87;3.27;;;21.00;1.00;;;;;;6185178;23;20404;-86
2023/06/29 07:11:48;;;;;;;4.77;4.00;;;21.10;1.00;;;;;;6185036;23;20499;-87
2023/06/29 07:14:16;;;;;;;4.83;3.57;;;21.90;99.90;;;;;;6182247;23;20396;-88
2023/06/29 07:16:43;;;;;;;4.30;4.00;;;21.20;71.00;;;;;;6161476;23;20401;-88
2023/06/29 07:19:14;;;;;;;5.10;3.10;;;21.20;11.70;;;;;;6162991;23;20411;-88
2023/06/29 07:21:41;;;;;;;6.00;4.37;;;21.10;68.50;;;;;;6183873;23;20435;-88
2023/06/29 07:24:11;;;;;;;4.20;3.80;;;20.80;97.20;;;;;;6177295;23;20412;-88
2023/06/29 07:26:38;;;;;;;4.20;3.80;;;20.80;99.90;;;;;;6176820;23;20463;-88
2023/06/29 07:29:06;;;;;;;5.03;4.63;;;21.10;99.90;;;;;;6171506;23;20408;-88
2023/06/29 07:31:33;;;;;;;6.03;3.73;;;;;;;;;;6159359;23;20417;-89
2023/06/29 07:34:00;;;;;;;4.40;4.00;;;21.00;1.00;;;;;;6159135;23;20451;-89
2023/06/29 07:36:29;;;;;;;5.47;4.30;;;21.10;99.90;;;;;;6162096;23;20498;-89
2023/06/29 07:38:56;;;;;;;5.03;4.03;;;20.90;99.90;;;;;;6168471;23;20495;-89
2023/06/29 07:41:25;;;;;;;4.23;3.93;;;21.20;99.90;;;;;;6164853;23;20412;-89
2023/06/29 07:43:53;;;;;;;5.87;3.97;;;21.00;1.00;;;;;;6166452;23;20466;-89
2023/06/29 07:46:20;;;;;;;6.10;4.73;;;20.80;1.00;;;;;;6169693;23;20439;-87
2023/06/29 07:48:47;;;;;;;5.40;4.90;;;21.00;1.00;;;;;;6179936;23;20495;-88
2023/06/29 07:51:14;;;;;;;5.10;4.80;;;21.10;99.90;;;;;;6181089;23;20392;-87
2023/06/29 07:53:41;;;;;;;5.47;4.93;;;21.00;1.00;;;;;;6184145;23;20384;-86
2023/06/29 07:56:29;;;;;;;4.70;4.10;;;21.00;1.00;;;;;;6184455;23;20415;-86
2023/06/29 07:58:57;;;;;;;4.50;4.13;;;20.90;99.90;;;;;;6184319;23;20427;-86
2023/06/29 08:01:24;;;;;;;6.17;4.90;;;21.60;1.00;;;;;;6184409;23;20392;-87
2023/06/29 08:03:51;;;;;;;5.97;3.90;;;21.20;1.00;;;;;;6184124;23;20392;-88
2023/06/29 08:06:18;;;;;;;3.63;2.90;;;21.30;99.90;;;;;;6184397;23;20436;-87
2023/06/29 08:08:45;;;;;;;7.00;3.60;;;21.30;1.00;;;;;;6184612;23;20407;-87
2023/06/29 08:11:13;;;;;;;5.70;3.40;;;21.00;1.00;;;;;;6184313;23;20386;-86
2023/06/29 08:13:41;;;;;;;3.33;3.13;;;21.30;1.00;;;;;;6184441;23;20396;-87
2023/06/29 08:16:09;;;;;;;3.73;3.43;;;21.30;1.00;;;;;;6184301;23;20420;-86
2023/06/29 08:18:36;;;;;;;4.00;3.70;;;21.20;1.00;;;;;;6184510;23;20388;-87
2023/06/29 08:21:03;;;;;;;6.07;3.07;;;21.50;99.90;;;;;;6184132;23;20427;-86
2023/06/29 08:23:33;;;;;;;3.57;3.27;;;21.40;1.00;;;;;;6184338;23;20399;-88
2023/06/29 08:26:00;;;;;;;2.97;2.77;;;;;;;;;;6183388;23;20507;-88
2023/06/29 08:28:27;;;;;;;3.17;2.90;;;21.50;1.00;;;;;;6181055;23;20416;-88
2023/06/29 08:30:54;;;;;;;5.03;2.93;;;21.60;99.90;;;;;;6182433;23;20411;-88
2023/06/29 08:33:23;;;;;;;3.33;2.90;;;21.60;97.00;;;;;;6182193;23;20416;-88
2023/06/29 08:35:51;;;;;;;4.50;2.90;;;21.60;1.00;;;;;;6181860;23;20412;-88
2023/06/29 08:38:18;;;;;;;3.07;2.80;;;21.60;1.00;;;;;;6177869;23;20470;-88
2023/06/29 08:40:49;;;;;;;8.20;6.00;;;21.60;1.00;;;;;;6163793;23;20738;-89
2023/06/29 08:43:17;;;;;;;6.13;5.10;;;21.60;4.50;;;;;;6162991;23;20392;-88
2023/06/29 08:45:45;;;;;;;5.00;4.50;;;21.70;99.90;;;;;;6161489;23;20436;-89
2023/06/29 08:48:13;;;;;;;5.30;4.47;;;21.60;1.00;;;;;;6161204;23;20479;-89
2023/06/29 08:50:51;;;;;;;5.00;4.60;;;21.50;1.00;;;;;;6160575;23;20412;-88
2023/06/29 08:53:18;;;;;;;3.67;3.37;;;21.50;1.00;;;;;;6160848;23;20423;-88
2023/06/29 08:55:45;;;;;;;5.53;4.07;;;21.40;1.00;;;;;;6162558;23;20484;-88
2023/06/29 08:58:12;;;;;;;5.07;3.70;;;21.60;1.00;;;;;;6165672;23;20400;-88
2023/06/29 09:00:41;;;;;;;4.23;3.83;;;21.50;1.00;;;;;;6165192;23;20401;-89
2023/06/29 09:03:09;;;;;;;3.03;2.80;;;21.50;93.80;;;;;;6169065;23;20401;-89
2023/06/29 09:05:36;;;;;;;3.83;3.50;;;21.60;99.90;;;;;;6173997;23;20498;-88
2023/06/29 09:08:06;;;;;;;4.27;2.83;;;21.60;1.00;;;;;;6166108;23;20440;-88
2023/06/29 09:10:33;;;;;;;3.90;2.90;;;;;;;;;;6163010;23;20424;-88
2023/06/29 09:13:02;;;;;;;5.13;3.20;;;;;;;;;;6161490;23;20404;-88
2023/06/29 09:15:30;;;;;;;5.90;3.60;;;21.30;1.00;;;;;;6161522;23;20443;-88
2023/06/29 09:17:57;;;;;;;5.17;4.60;;;21.30;1.00;;;;;;6161244;23;20432;-89
2023/06/29 09:20:25;;;;;;;4.23;3.90;;;21.40;1.00;;;;;;6161077;23;20415;-88
2023/06/29 09:22:53;;;;;;;5.60;3.90;;;21.80;1.00;;;;;;6180828;23;20388;-85
2023/06/29 09:25:30;;;;;;;7.20;3.33;;;21.10;99.90;;;;;;6183820;23;20501;-86
2023/06/29 09:28:05;;;;;;;4.23;3.20;;;21.50;99.90;;;;;;6183797;23;20432;-87
2023/06/29 09:30:37;;;;;;;2.93;2.73;;;21.50;99.90;;;;;;6162157;23;20404;-88
2023/06/29 09:33:09;;;;;;;3.53;3.23;;;21.60;99.90;;;;;;6160480;23;20434;-88
2023/06/29 09:35:37;;;;;;;4.63;3.77;;;21.50;1.00;;;;;;6164103;23;20818;-87
2023/06/29 09:38:06;;;;;;;3.80;3.50;;;21.60;1.00;;;;;;6174219;23;20404;-86
2023/06/29 09:40:47;;;;;;;5.20;4.57;;;21.80;99.90;;;;;;6182637;23;20404;-88
2023/06/29 09:43:18;;;;;;;3.37;3.07;;;21.90;1.00;;;;;;6183107;23;20377;-89
2023/06/29 09:45:48;;;;;;;4.00;3.70;;;;;;;;;;6183258;23;20465;-87
2023/06/29 09:48:16;;;;;;;4.10;2.87;;;21.80;1.00;;;;;;6169368;23;20421;-89
2023/06/29 09:50:49;;;;;;;4.70;3.10;;;21.90;1.00;;;;;;6161255;23;20416;-89
2023/06/29 09:53:17;;;;;;;3.50;3.30;;;;;;;;;;6172248;23;20372;-88
2023/06/29 09:55:49;;;;;;;2.83;2.63;;;21.90;1.00;;;;;;6183088;23;20437;-87
2023/06/29 09:58:18;;;;;;;5.43;3.10;;;22.10;1.00;;;;;;6185584;23;20488;-88
2023/06/29 10:00:47;;;;;;;3.60;3.20;;;;;;;;;;6176853;23;20415;-89
2023/06/29 10:03:17;;;;;;;3.03;2.83;;;;;;;;;;6164393;23;20404;-89
2023/06/29 10:05:44;;;;;;;6.00;3.10;;;;;;;;;;6163490;23;20843;-89
2023/06/29 10:08:14;;;;;;;3.40;3.10;;;22.20;1.00;;;;;;6162413;23;20436;-89
2023/06/29 10:10:41;;;;;;;3.50;3.20;;;;;;;;;;6161934;23;20503;-89
2023/06/29 10:16:29;;;;;;;3.07;2.83;;;22.30;1.00;;;;;;6109393;23;20443;-89
2023/06/29 10:19:05;;;;;;;4.13;3.73;;;22.40;1.00;;;;;;6164077;23;20423;-89
2023/06/29 10:21:33;;;;;;;3.30;3.10;;;22.60;1.00;;;;;;6161020;23;20396;-89
2023/06/29 10:24:02;;;;;;;3.20;2.90;;;22.60;1.00;;;;;;6171434;23;20404;-89
2023/06/29 10:26:29;;;;;;;3.77;3.57;;;;;;;;;;6168090;23;20424;-89
2023/06/29 10:28:57;;;;;;;3.37;3.07;;;;;;;;;;6164225;23;20408;-89
2023/06/29 10:31:35;;;;;;;3.90;3.70;;;22.80;1.00;;;;;;6162245;23;20939;-89
2023/06/29 10:34:02;;;;;;;3.40;3.20;;;;;;;;;;6165327;23;20729;-89
2023/06/29 10:36:45;;;;;;;3.37;3.00;;;22.90;1.00;;;;;;6164977;23;20431;-89
2023/06/29 10:39:47;;;;;;;3.80;3.50;;;23.00;1.00;;;;;;6169529;23;20388;-89
2023/06/29 10:42:52;;;;;;;5.83;3.07;;;23.00;1.00;;;;;;6154618;23;20411;-89
2023/06/29 10:45:40;;;;;;;4.50;3.60;;;23.20;25.20;;;;;;6171006;23;20822;-89
2023/06/29 10:48:11;;;;;;;3.50;3.30;;;23.00;1.00;;;;;;6172057;23;20416;-89
2023/06/29 10:50:45;;;;;;;4.83;4.37;;;23.00;1.00;;;;;;6174571;23;20394;-86
2023/06/29 10:53:14;;;;;;;4.37;4.00;;;22.90;1.00;;;;;;6184133;23;20455;-88
2023/06/29 10:55:51;;;;;;;3.97;3.70;;;23.00;1.00;;;;;;6179690;23;20428;-88
2023/06/29 10:58:23;;;;;;;4.70;4.40;;;23.00;1.00;;;;;;6166766;23;20483;-90
2023/06/29 11:00:52;;;;;;;4.80;4.30;;;23.30;99.90;;;;;;6166563;23;20436;-88
2023/06/29 11:03:25;;;;;;;7.97;7.20;;;23.20;1.00;;;;;;6164364;23;20462;-88
2023/06/29 11:05:56;;;;;;;7.23;6.50;;;23.20;1.00;;;;;;6165336;23;20416;-88
2023/06/29 11:08:25;;;;;;;6.40;5.80;;;23.40;1.00;;;;;;6177901;23;20450;-87
2023/06/29 11:10:52;;;;;;;4.10;3.80;;;23.40;1.00;;;;;;6185099;23;20413;-87
2023/06/29 11:13:22;;;;;;;5.87;4.23;;;23.40;1.00;;;;;;6172001;23;20427;-89
2023/06/29 11:15:54;;;;;;;4.67;4.27;;;23.40;1.00;;;;;;6169621;23;20440;-89
2023/06/29 11:18:23;;;;;;;5.07;3.80;;;23.60;1.00;;;;;;6166494;23;20400;-87
2023/06/29 11:20:50;;;;;;;4.30;4.00;;;23.80;1.00;;;;;;6180516;23;20412;-88
2023/06/29 11:23:17;;;;;;;4.93;4.60;;;23.60;1.00;;;;;;6183119;23;20395;-88
2023/06/29 11:25:44;;;;;;;5.60;5.00;;;23.60;1.00;;;;;;6184211;23;20424;-88
2023/06/29 11:28:14;;;;;;;5.00;4.60;;;23.30;1.00;;;;;;6164069;23;20447;-89
2023/06/29 11:30:41;;;;;;;7.70;6.90;;;23.70;1.00;;;;;;6165326;23;20420;-89
2023/06/29 11:33:11;;;;;;;5.30;4.90;;;23.70;1.00;;;;;;6161799;23;20734;-89
2023/06/29 11:35:43;;;;;;;5.13;4.60;;;23.60;1.00;;;;;;6162388;23;20961;-89
2023/06/29 11:38:10;;;;;;;3.93;3.63;;;23.80;1.00;;;;;;6162389;23;20392;-88
2023/06/29 11:40:37;;;;;;;5.40;3.80;;;23.80;1.00;;;;;;6161063;23;20436;-88
2023/06/29 11:43:04;;;;;;;7.13;4.67;;;23.80;1.00;;;;;;6162970;23;20443;-89
2023/06/29 11:45:33;;;;;;;11.13;4.93;;;23.70;1.00;;;;;;6162156;23;20459;-88
2023/06/29 11:48:00;;;;;;;5.00;4.50;;;23.70;1.00;;;;;;6160659;23;20440;-88
2023/06/29 11:50:30;;;;;;;4.30;4.10;;;23.80;1.00;;;;;;6159547;23;20408;-88
2023/06/29 11:52:58;;;;;;;3.83;3.53;;;23.40;1.00;;;;;;6161627;23;20412;-88
2023/06/29 11:55:26;;;;;;;5.20;4.80;;;23.60;1.00;;;;;;6177152;23;20412;-85
2023/06/29 11:57:55;;;;;;;7.70;4.17;;;23.70;1.00;;;;;;6183627;23;20448;-88
2023/06/29 12:00:33;;;;;;;5.67;5.07;;;23.80;1.00;;;;;;6184447;23;20420;-87
2023/06/29 12:03:10;;;;;;;4.63;4.23;;;23.90;1.00;;;;;;6184443;23;20400;-88
2023/06/29 12:05:41;;;;;;;8.13;7.33;;;24.00;1.00;;;;;;6184299;23;20408;-87
2023/06/29 12:08:10;;;;;;;4.07;3.73;;;24.10;1.00;;;;;;6179899;23;20452;-89
2023/06/29 12:10:39;;;;;;;4.27;3.97;;;23.90;1.00;;;;;;6162930;23;20408;-89
2023/06/29 12:13:09;;;;;;;4.30;3.90;;;24.00;1.00;;;;;;6163524;23;20408;-89
2023/06/29 12:15:36;;;;;;;4.37;4.00;;;24.20;1.00;;;;;;6163112;23;20436;-89
2023/06/29 12:18:12;;;;;;;4.93;4.10;;;24.20;1.00;;;;;;6183606;23;20443;-88
2023/06/29 12:20:41;;;;;;;4.70;4.40;;;23.70;1.00;;;;;;6183408;23;20415;-87
2023/06/29 12:23:10;;;;;;;5.10;4.03;;;24.20;1.00;;;;;;6184378;23;20419;-85
2023/06/29 12:25:44;;;;;;;4.73;4.03;;;23.40;1.00;;;;;;6184450;23;20451;-86
2023/06/29 12:28:12;;;;;;;4.70;4.30;;;23.70;1.00;;;;;;6184293;23;20443;-87
2023/06/29 12:30:40;;;;;;;6.10;5.40;;;24.10;1.00;;;;;;6184266;23;20407;-85
2023/06/29 12:33:07;;;;;;;4.90;4.53;;;23.90;1.00;;;;;;6184275;23;20404;-85
2023/06/29 12:35:34;;;;;;;5.00;4.60;;;23.80;1.00;;;;;;6183077;23;20439;-87
2023/06/29 12:38:03;;;;;;;6.43;4.30;;;23.80;1.00;;;;;;6183479;23;20427;-88
2023/06/29 12:40:37;;;;;;;7.10;4.40;;;23.40;1.00;;;;;;6182127;23;20404;-87
2023/06/29 12:43:05;;;;;;;5.60;5.10;;;;;;;;;;6182918;23;20380;-87
2023/06/29 12:45:35;;;;;;;10.30;5.63;;;24.00;1.00;;;;;;6183404;23;20471;-87
2023/06/29 12:48:15;;;;;;;4.80;4.50;;;23.90;1.00;;;;;;6183370;23;20440;-88
2023/06/29 12:50:42;;;;;;;6.53;5.77;;;;;;;;;;6179076;23;20392;-88
2023/06/29 12:53:10;;;;;;;7.37;5.80;;;;;;;;;;6165549;23;20412;-89
2023/06/29 12:55:38;;;;;;;6.27;5.67;;;24.10;1.00;;;;;;6168328;23;20428;-89
2023/06/29 12:58:05;;;;;;;11.13;9.17;;;24.10;1.00;;;;;;6165083;23;20491;-89
2023/06/29 13:00:36;;;;;;;9.30;8.40;;;;;;;;;;6162773;23;20408;-89
2023/06/29 13:03:07;;;;;;;6.80;6.20;;;;;;;;;;6162771;23;20479;-89
2023/06/29 13:05:34;;;;;;;9.23;8.23;;;24.00;1.00;;;;;;6163468;23;20491;-89
2023/06/29 13:08:01;;;;;;;9.40;8.60;;;24.00;25.20;;;;;;6169278;23;20436;-89
2023/06/29 13:10:29;;;;;;;7.30;6.57;;;24.10;40.50;;;;;;6165281;23;20462;-89
2023/06/29 13:12:57;;;;;;;6.20;5.67;;;24.10;1.00;;;;;;6170081;23;20475;-89
2023/06/29 13:15:24;;;;;;;6.53;6.03;;;24.10;99.90;;;;;;6177275;23;20443;-89
2023/06/29 13:17:51;;;;;;;8.63;7.13;;;;;;;;;;6178355;23;20396;-89
2023/06/29 13:20:19;;;;;;;6.87;6.37;;;;;;;;;;6177545;23;20408;-88
2023/06/29 13:22:48;;;;;;;8.03;7.40;;;24.20;81.60;;;;;;6169158;23;20463;-88
2023/06/29 13:25:15;;;;;;;7.57;6.97;;;;;;;;;;6168136;23;20490;-89
2023/06/29 13:27:44;;;;;;;7.77;5.40;;;24.20;1.00;;;;;;6165629;23;20448;-89
2023/06/29 13:30:14;;;;;;;5.23;4.83;;;24.00;1.00;;;;;;6163977;23;20901;-89
2023/06/29 13:32:41;;;;;;;6.53;5.83;;;;;;;;;;6164847;23;20928;-88
2023/06/29 13:35:09;;;;;;;6.07;5.57;;;24.20;1.00;;;;;;6169155;23;20479;-88
2023/06/29 13:37:38;;;;;;;5.67;4.93;;;24.20;1.00;;;;;;6168619;23;20408;-88
2023/06/29 13:40:06;;;;;;;5.23;4.90;;;24.10;1.00;;;;;;6168867;23;20460;-88
2023/06/29 13:42:33;;;;;;;6.63;5.23;;;25.60;70.40;;;;;;6164409;23;20411;-88
2023/06/29 13:45:00;;;;;;;6.23;5.77;;;24.40;1.00;;;;;;6164450;23;20472;-88
2023/06/29 13:47:28;;;;;;;6.93;5.40;;;24.10;1.00;;;;;;6163534;23;20483;-88
2023/06/29 13:49:56;;;;;;;5.53;5.13;;;;;;;;;;6163628;23;20423;-88
2023/06/29 13:52:23;;;;;;;5.37;4.97;;;24.50;22.80;;;;;;6164402;23;20439;-88
2023/06/29 13:54:50;;;;;;;5.63;4.97;;;;;;;;;;6172287;23;20407;-88
2023/06/29 13:57:17;;;;;;;6.20;5.80;;;;;;;;;;6184473;23;20388;-88
2023/06/29 13:59:47;;;;;;;6.27;5.63;;;24.50;1.00;;;;;;6181458;23;20940;-88
2023/06/29 14:02:14;;;;;;;7.00;5.20;;;;;;;;;;6165666;23;20428;-89
2023/06/29 14:04:44;;;;;;;4.90;4.50;;;24.50;1.00;;;;;;6167190;23;20419;-88
2023/06/29 14:07:12;;;;;;;5.47;5.00;;;;;;;;;;6172047;23;20399;-88
2023/06/29 14:09:39;;;;;;;5.17;4.23;;;;;;;;;;6176471;23;20452;-89
2023/06/29 14:12:12;;;;;;;4.70;4.40;;;24.30;1.00;;;;;;6162858;23;20408;-89
2023/06/29 14:14:41;;;;;;;15.10;10.60;;;;;;;;;;6164568;23;20454;-90
2023/06/29 14:17:08;;;;;;;5.90;5.33;;;24.60;1.00;;;;;;6163839;23;20405;-88
2023/06/29 14:19:38;;;;;;;5.07;4.67;;;24.70;1.00;;;;;;6165374;23;20467;-89
2023/06/29 14:22:11;;;;;;;4.67;3.90;;;24.80;1.00;;;;;;6166089;23;20408;-90
2023/06/29 14:24:38;;;;;;;4.53;4.13;;;24.70;1.00;;;;;;6166639;23;20436;-88
2023/06/29 14:27:06;;;;;;;5.63;5.13;;;25.60;1.00;;;;;;6164498;23;20392;-89
2023/06/29 14:29:33;;;;;;;5.63;5.13;;;25.00;1.00;;;;;;6165336;23;20535;-89
2023/06/29 14:32:00;;;;;;;7.43;3.97;;;;;;;;;;6165393;23;20970;-90
2023/06/29 14:34:27;;;;;;;4.90;4.50;;;;;;;;;;6165962;23;20412;-89
2023/06/29 14:36:54;;;;;;;5.33;4.87;;;24.90;1.00;;;;;;6164462;23;20470;-89
2023/06/29 14:39:22;;;;;;;5.17;4.67;;;24.90;1.00;;;;;;6166572;23;20393;-89